Shenandoah Municipal Airport
Friday 10:35 PM
Weather Clear
Temperature 39°
Dew Point 28°
Feels Like 37°
Relative Humidity 65
%
Visibility 10
mi
Pressure 1010.5
mb
Wind Direction SSW
Wind Speed 3
mph
Last Hour Precip 0.00
"
KSDA 270435Z AUTO 21003KT 10SM CLR 04/M02 A2984 RMK AO2

Recent Observations

Time Present Weather Temp DP Feels RH% Vsby Pressure Ceiling Direction Speed Gust 1h Precip
10:35PM
VFR
39° 28° 37° 65
%
10
mi
1010.5
mb
None SSW 3
mph
0.00"
KSDA 270435Z AUTO 21003KT 10SM CLR 04/M02 A2984 RMK AO2
10:15PM
VFR
41° 28° 41° 61
%
10
mi
1010.2
mb
None Calm 0.00"
KSDA 270415Z AUTO 00000KT 10SM CLR 05/M02 A2983 RMK AO2
9:55PM
VFR
39° 28° 36° 65
%
10
mi
1010.5
mb
None SSW 5
mph
0.00"
KSDA 270355Z AUTO 21004KT 10SM CLR 04/M02 A2984 RMK AO2
9:35PM
VFR
39° 28° 39° 65
%
10
mi
1010.5
mb
None Calm 0.00"
KSDA 270335Z AUTO 00000KT 10SM CLR 04/M02 A2984 RMK AO2
9:15PM
VFR
37° 28° 37° 70
%
10
mi
1010.5
mb
None Calm 0.00"
KSDA 270315Z AUTO 00000KT 10SM CLR 03/M02 A2984 RMK AO2
8:55PM
VFR
37° 27° 37° 65
%
10
mi
1010.5
mb
None Calm 0.00"
KSDA 270255Z AUTO 00000KT 10SM CLR 03/M03 A2984 RMK AO2
8:35PM
VFR
41° 28° 41° 61
%
10
mi
1010.8
mb
None Calm 0.00"
KSDA 270235Z AUTO 00000KT 10SM CLR 05/M02 A2985 RMK AO2
8:15PM
VFR
39° 28° 39° 65
%
10
mi
1011.2
mb
None Calm 0.00"
KSDA 270215Z AUTO 00000KT 10SM CLR 04/M02 A2986 RMK AO2
7:55PM
VFR
41° 28° 41° 61
%
10
mi
1011.2
mb
None Calm 0.00"
KSDA 270155Z AUTO 00000KT 10SM CLR 05/M02 A2986 RMK AO2
7:35PM
VFR
39° 28° 39° 65
%
10
mi
1011.2
mb
None Calm 0.00"
KSDA 270135Z AUTO 00000KT 10SM CLR 04/M02 A2986 RMK AO2
7:15PM
VFR
39° 28° 39° 65
%
10
mi
1011.2
mb
None Calm 0.00"
KSDA 270115Z AUTO 00000KT 10SM CLR 04/M02 A2986 RMK AO2
6:55PM
VFR
43° 28° 40° 56
%
10
mi
1011.5
mb
None S 5
mph
0.00"
KSDA 270055Z AUTO 17004KT 10SM CLR 06/M02 A2987 RMK AO2
6:35PM
VFR
41° 27° 41° 56
%
10
mi
1011.5
mb
None Calm 0.00"
KSDA 270035Z AUTO 00000KT 10SM CLR 05/M03 A2987 RMK AO2
6:15PM
VFR
43° 28° 43° 56
%
10
mi
1011.9
mb
None Calm 0.00"
KSDA 270015Z AUTO 00000KT 10SM CLR 06/M02 A2988 RMK AO2
5:55PM
VFR
45° 28° 41° 53
%
10
mi
1012.2
mb
None SE 6
mph
0.00"
KSDA 262355Z AUTO 14005KT 10SM CLR 07/M02 A2989 RMK AO2
5:35PM
VFR
45° 28° 40° 53
%
10
mi
1011.9
mb
None SSE 8
mph
0.00"
KSDA 262335Z AUTO 15007KT 10SM CLR 07/M02 A2988 RMK AO2
5:15PM
VFR
45° 28° 39° 53
%
10
mi
1011.9
mb
None SSE 10
mph
0.00"
KSDA 262315Z AUTO 16009KT 10SM CLR 07/M02 A2988 RMK AO2
4:55PM
VFR
46° 27° 42° 46
%
10
mi
1012.2
mb
None SSE 8
mph
0.00"
KSDA 262255Z AUTO 16007KT 10SM CLR 08/M03 A2989 RMK AO2
4:35PM
VFR
48° 27° 45° 43
%
10
mi
1012.5
mb
None S 8
mph
0.00"
KSDA 262235Z AUTO 18007KT 10SM CLR 09/M03 A2990 RMK AO2
4:15PM
VFR
52° 28° 52° 40
%
10
mi
1012.5
mb
None S 7
mph
0.00"
KSDA 262215Z AUTO 18006KT 10SM CLR 11/M02 A2990 RMK AO2
Click here to show this page without METARs/TAFs included